Terminal Aerodrome Forecast
Issued by NWS Green Bay, WI

Home | Current Version | Previous Version | Graphics & Text | Print | Product List | Glossary On
Versions: 1 2 3 4 5 6 7 8 9 10 11 12 13 14 15 16 17 18 19 20 21 22 23 24 25 26 27
000
FTUS43 KGRB 190500
TAFGRB
TAF
KGRB 190520Z 1906/2006 VRB03KT P6SM SCT200
     FM191300 19003KT P6SM BKN200
     FM191600 21007KT P6SM SCT080 BKN150
     FM191900 21009G14KT P6SM VCSH BKN080 OVC150
     FM200000 22005KT P6SM BKN090 BKN200=

USA.gov is the U.S. government's official web portal to all federal, state and local government web resources and services.